Drummond Island, MI

7:06 AM EDT on September 20, 2014 (GMT -0400)
Drummond Island | Change Station
CLOSE
Current Station
Airport
Location: Drummond Island,
Elevation: 669 ft
Nearby Weather Stations

Elev 669 ft 46.01 °N, 83.74 °W | Updated 11 minutes ago

Light Rain
Light Rain
57 °F
Feels Like 57 °F
N
7
Wind Variable Wind from South

Today
High -- | Low -- °F
--% Chance of Precip.
Yesterday
High -- | Low -- °F
Precip. -- in
7:19 AM 7:36 PM
Waning Crescent, 13% visible
Pressure 29.73 in
Visibility 10.0 miles
Clouds Overcast 3900 ft
Dew Point 54 °F
Humidity 88%
Rainfall 0.00 in
Snow Depth Not available.
UV 0 out of 12
Pollen 4.00 out of 12
Ozone Good
PM2.5 Good
Flu Activity Not available.
METAR KDRM 201055Z AUTO 18006KT 10SM -RA OVC039 14/12 A2973 RMK AO2 T01400120

More Conditions Fewer Conditions

Pressure 29.73 in
Visibility 10.0 miles
Clouds Overcast 3900 ft
Dew Point 54 °F
Humidity 88%
Rainfall 0.00 in
Snow Depth Not available.
UV 0 out of 12
Pollen 4.00 out of 12
Ozone Good
PM2.5 Good
Flu Activity Not available.
METAR KDRM 201055Z AUTO 18006KT 10SM -RA OVC039 14/12 A2973 RMK AO2 T01400120

More Conditions Fewer Conditions

Nowcast | as of 7:00 am EDT on September 20, 2014

At 8 am...cloudy. Chance of rain showers and slight chance of thunderstorms. Temperature 57. South winds 9 mph. At 10 am...cloudy. Chance of rain showers and slight chance of thunderstorms. Temperature 59. Southwest winds 11 mph. At 12 PM...cloudy. Chance of rain showers and slight chance of thunderstorms. Temperature 62. Southwest winds 12 mph. At 2 PM...mostly cloudy. Chance of rain showers and slight chance of thunderstorms. Temperature 63. Southwest winds 13 mph.

×

10-Day Weather Forecast

Almanac

Astronomy

Sep. 20, 2014 Rise Set
Actual Time 7:19 AM EDT 7:36 PM EDT
Civil Twilight 6:49 AM EDT 8:06 PM EDT
Nautical Twilight 6:14 AM EDT 8:41 PM EDT
Astronomical Twilight 5:37 AM EDT 9:17 PM EDT
Moon 3:48 AM EDT 5:46 PM EDT
Length of Visible Light 13h 16m
Length of Day
12h 17m
Tomorrow will be 3m 13s shorter.
Waning Crescent, 13% of the Moon is Illuminated
Today
Waning Crescent
Sep 24
New
Oct 1
First Quarter
Oct 8
Full
Oct 15
Last Quarter

Today's Extremes

State Highs State Lows

Community

WunderPhotos

Upload Photos

1,754,829 photos uploaded!

WunderBlogs® & News

Nearby

Air Quality

  Air Quality AQ Index Pollutant
Yesterday Good
OZONE
Yesterday Good
PM2.5
Current Good
PM2.5
Current Good
OZONE
Saturday Good
OZONE
Saturday Good
PM2.5
Sunday Good
OZONE
Sunday Good
PM2.5
Monday Good
OZONE
Monday Good
PM2.5

Snow Depth

Station Depth Elevation
No new snow has been reported.

Earthquake Activity

City Distance Mag. Time & Date
No recent earthquake activity has been reported nearby.
Minimum magnitude displayed is 2.5.

Coastal Water Temperatures

Place Temperature
De Tour Village, MI 55.9 °F
Rock Cut, MI 57.0 °F
Little Rapids, MI 57.0 °F
S W Pier, MI 59.0 °F
West Neebish, MI 57.0 °F

Nearby Weather Stations